Tar Heel, NC (28392)

9:12 AM EST op 04 december 2016 (GMT -0500)
Tobermory (N.W. Bladen County) | | Change Station

Hoogte 140 ft 34.83 °N, 78.87 °W | Updated 10 seconds ago

Overcast
Geheel bewolkt
43.0 °F
Voelt als 43 °F
N
0.0
Wind Variabel Wind van noord

Vandaag
Hoog -- | Laag -- °F
--% Kans op neerslag
Gisteren
Hoog -- | Laag -- °F
Precip. -- inches
Druk 30.28 inches
Zicht 10.0 mijlen
Wolken Geheel bewolkt 8500 ft
Gevoelstemperatuur 43 °F
Dauwpunt 41 °F
Vochtigheid 95%
Neerslag 0.00 inches
Dikte sneeuw Niet beschikbaar.
7:07 AM 5:03 PM
Wassende halvemaan, 23% visible
METAR KLBT 041354Z AUTO 05007KT 10SM OVC085 07/03 A3028 RMK AO2 RAE02 SLP253 P0000 T00720033
Druk 30.28 inches
Zicht 10.0 mijlen
Wolken Geheel bewolkt 8500 ft
Gevoelstemperatuur 43 °F
Dauwpunt 41 °F
Vochtigheid 95%
Neerslag 0.00 inches
Dikte sneeuw Niet beschikbaar.
7:07 AM 5:03 PM
Wassende halvemaan, 23% visible
METAR KLBT 041354Z AUTO 05007KT 10SM OVC085 07/03 A3028 RMK AO2 RAE02 SLP253 P0000 T00720033

10-Day Weather Forecast

Almanac

Astronomie

Dec. 04, 2016 Opkomst Ondergang
Werkelijke tijd
Burgerlijke schemering
Nautische schemering
Astronomische schemering
Maan
Golflengte van het zichtbare licht
Daglengte
Tomorrow will be .
, % of the Moon is Illuminated

Extremen vandaag

State Highs State Lows

Community

WunderPhotos

Upload Photos

1,955,598 foto’s ge-upload!

WunderBlog® & News

Nearby

Luchtkwaliteit

  Luchtkwaliteit LK-index Verontreinigende stof
Not available.

Dikte sneeuw

Station Depth Geometrische hoogte

Aardbevingen

Stad Distance Mag. Time & Date
Minimum magnitude displayed is 2.5.

Watertemperatuur langs de kust

Plaats Temperatuur

Stations

Nabije weerstations

Locatie station Temp. Gevoelstemperatuur Dauwpunt Vochtigheid Wind Precip. Hoogte Geactualiseerd Type
                   

Watches & Warnings

There are currently no watches in effect.